108 Mile Ranch, British Columbia

10:50 PM PST on January 18, 2017 (GMT -0800)
108 Ranch | | Change Station

Elev 3077 ft 51.74 °N, 121.37 °W | Updated 2 minutes ago

Mostly Cloudy
Mostly Cloudy
36.5 °F
Feels Like 36 °F
N
2.7
Wind Variable Wind from ESE

Today
High -- | Low -- °F
--% Chance of Precip.
Yesterday
High -- | Low -- °F
Precip. -- in
Pressure 29.27 in
Visibility 6.0 miles
Clouds Overcast 2200 ft
Windchill 36 °F
Dew Point 31 °F
Humidity 79%
Rainfall 0.00 in
Snow Depth Not available.
8:02 AM 4:30 PM
Waning Gibbous, 56% visible
SPECI CYIN 190612Z AUTO 11012KT 6SM -SN OVC022 M00/M00 A2919 RMK SLP910
Pressure 29.27 in
Visibility 6.0 miles
Clouds Overcast 2200 ft
Windchill 36 °F
Dew Point 31 °F
Humidity 79%
Rainfall 0.00 in
Snow Depth Not available.
8:02 AM 4:30 PM
Waning Gibbous, 56% visible
SPECI CYIN 190612Z AUTO 11012KT 6SM -SN OVC022 M00/M00 A2919 RMK SLP910

Get Your Daily Forecast Email!

Thanks for signing up!

Be on the lookout for a verification email in your inbox.

You'll start receiving the daily forecast at 8 AM.

×

10-Day Weather Forecast

Almanac

Astronomy

Jan. 18, 2017 Rise Set
Actual Time
Civil Twilight
Nautical Twilight
Astronomical Twilight
Moon
Length of Visible Light
Length of Day
Tomorrow will be .
, % of the Moon is Illuminated

Today's Extremes

Country Highs Country Lows

Community

WunderPhotos

Upload Photos

1,962,540 photos uploaded!

WunderBlog® & News

Nearby

Air Quality

  Air Quality AQ Index Pollutant
Not available.

Snow Depth

Station Depth Elevation

Earthquake Activity

City Distance Mag. Time & Date
Minimum magnitude displayed is 2.5.

Coastal Water Temperatures

Place Temperature

Stations

Nearby Weather Stations

Station Location Temp. Windchill Dew Point Humidity Wind Precip. Elev Updated Type
                   

Watches & Warnings

There are currently no watches in effect.